Time;durP1;ratioP1;P1;durP2;ratioP2;P2;SDS_P1;SDS_P2;PMS_P1;PMS_P2;Temp;Humidity;BMP_temperature;BMP_pressure;BME280_temperature;BME280_humidity;BME280_pressure;Samples;Min_cycle;Max_cycle;Signal;HPM_P1;HPM_P2
2022/07/22 00:01:25;;;;;;;16.88;10.73;;;;;;;;;;4952689;28;20051;-75
2022/07/22 00:03:52;;;;;;;20.27;12.10;;;;;;;;;;4957342;28;20078;-75
2022/07/22 00:06:20;;;;;;;19.60;11.65;;;;;;;;;;4955853;28;20582;-74
2022/07/22 00:08:47;;;;;;;18.63;11.55;;;;;;;;;;4958263;28;20181;-74
2022/07/22 00:11:14;;;;;;;15.68;10.75;;;;;;;;;;4972225;28;20070;-74
2022/07/22 00:13:42;;;;;;;23.25;12.50;;;;;;;;;;4972698;28;20061;-75
2022/07/22 00:16:09;;;;;;;24.10;12.00;;;;;;;;;;4958982;28;20065;-75
2022/07/22 00:18:36;;;;;;;18.65;11.52;;;;;;;;;;4958955;28;20059;-75
2022/07/22 00:21:04;;;;;;;18.80;11.60;;;;;;;;;;4959308;28;21412;-75
2022/07/22 00:23:37;;;;;;;18.60;11.15;;;;;;;;;;4957253;28;20081;-75
2022/07/22 00:26:05;;;;;;;19.45;12.02;;;;;;;;;;4974108;28;20197;-74
2022/07/22 00:28:32;;;;;;;17.15;11.32;;;;;;;;;;4973340;28;20258;-74
2022/07/22 00:30:59;;;;;;;15.75;11.27;;;;;;;;;;4972000;28;20141;-74
2022/07/22 00:33:27;;;;;;;20.50;11.68;;;;;;;;;;4952338;28;20050;-75
2022/07/22 00:35:54;;;;;;;17.38;11.57;;;;;;;;;;4970466;28;20174;-74
2022/07/22 00:38:21;;;;;;;19.30;11.90;;;;;;;;;;4938561;28;20182;-74
2022/07/22 00:40:48;;;;;;;16.67;10.63;;;;;;;;;;4935771;28;20212;-74
2022/07/22 00:43:16;;;;;;;22.42;11.57;;;;;;;;;;4953501;28;20198;-74
2022/07/22 00:45:43;;;;;;;21.23;12.70;;;;;;;;;;4938070;28;20074;-75
2022/07/22 00:48:12;;;;;;;20.80;11.95;;;;;;;;;;4945356;28;20046;-74
2022/07/22 00:50:39;;;;;;;17.67;12.07;;;;;;;;;;4939250;28;21189;-74
2022/07/22 00:53:07;;;;;;;22.33;12.63;;;;;;;;;;4938164;28;20070;-75
2022/07/22 00:55:35;;;;;;;18.38;12.18;;;;;;;;;;4937810;28;20065;-74
2022/07/22 00:58:03;;;;;;;34.78;12.98;;;;;;;;;;4943145;28;20249;-74
2022/07/22 01:00:31;;;;;;;20.48;12.65;;;;;;;;;;4952338;28;20054;-74
2022/07/22 01:02:59;;;;;;;22.92;12.38;;;;;;;;;;4960731;28;20051;-72
2022/07/22 01:05:26;;;;;;;22.02;13.25;;;;;;;;;;4948201;28;20130;-75
2022/07/22 01:07:53;;;;;;;19.70;12.18;;;;;;;;;;4962098;28;20166;-73
2022/07/22 01:10:21;;;;;;;23.55;14.07;;;;;;;;;;4974664;28;20436;-76
2022/07/22 01:12:48;;;;;;;23.85;12.50;;;;;;;;;;4961918;28;20822;-73
2022/07/22 01:15:16;;;;;;;19.75;12.98;;;;;;;;;;4963376;28;20877;-73
2022/07/22 01:17:43;;;;;;;28.63;14.15;;;;;;;;;;4977277;28;20241;-73
2022/07/22 01:20:11;;;;;;;22.00;14.20;;;;;;;;;;4962454;28;20098;-74
2022/07/22 01:22:39;;;;;;;24.38;12.95;;;;;;;;;;4963071;28;20558;-73
2022/07/22 01:25:06;;;;;;;23.70;13.95;;;;;;;;;;4962592;28;20161;-73
2022/07/22 01:27:33;;;;;;;29.40;13.68;;;;;;;;;;4963058;28;20053;-73
2022/07/22 01:30:01;;;;;;;20.88;13.65;;;;;;;;;;4962854;28;20059;-73
2022/07/22 01:32:28;;;;;;;24.55;14.40;;;;;;;;;;4957548;28;20166;-73
2022/07/22 01:34:56;;;;;;;23.27;14.68;;;;;;;;;;4953767;28;20057;-74
2022/07/22 01:37:23;;;;;;;25.48;14.27;;;;;;;;;;4968677;28;20047;-73
2022/07/22 01:39:50;;;;;;;22.52;14.15;;;;;;;;;;4967271;28;20645;-73
2022/07/22 01:42:18;;;;;;;24.67;14.52;;;;;;;;;;4953105;28;20563;-73
2022/07/22 01:44:45;;;;;;;22.00;13.60;;;;;;;;;;4953653;28;20074;-73
2022/07/22 01:47:12;;;;;;;25.65;14.77;;;;;;;;;;4954062;28;20053;-74
2022/07/22 01:49:40;;;;;;;23.80;14.77;;;;;;;;;;4968053;28;21244;-74
2022/07/22 01:52:07;;;;;;;27.00;14.98;;;;;;;;;;4955957;28;20157;-72
2022/07/22 01:54:35;;;;;;;21.38;14.88;;;;;;;;;;4954269;28;20054;-74
2022/07/22 01:57:03;;;;;;;24.00;14.73;;;;;;;;;;4951507;28;20150;-73
2022/07/22 01:59:30;;;;;;;25.95;15.60;;;;;;;;;;4950919;28;20066;-73
2022/07/22 02:01:58;;;;;;;26.30;16.38;;;;;;;;;;4955724;28;20189;-74
2022/07/22 02:04:25;;;;;;;27.67;15.77;;;;;;;;;;4973357;28;20078;-73
2022/07/22 02:06:53;;;;;;;24.58;15.98;;;;;;;;;;4974646;28;20466;-73
2022/07/22 02:09:21;;;;;;;29.42;15.55;;;;;;;;;;4961759;28;20138;-73
2022/07/22 02:11:48;;;;;;;29.20;16.20;;;;;;;;;;4961433;28;20078;-73
2022/07/22 02:14:15;;;;;;;28.70;16.15;;;;;;;;;;4960901;28;20126;-73
2022/07/22 02:16:43;;;;;;;29.95;16.50;;;;;;;;;;4960296;28;20173;-73
2022/07/22 02:19:10;;;;;;;27.10;16.08;;;;;;;;;;4976456;28;20090;-73
2022/07/22 02:21:37;;;;;;;29.55;16.70;;;;;;;;;;4975493;28;20084;-75
2022/07/22 02:24:05;;;;;;;28.63;16.85;;;;;;;;;;4959772;28;20133;-73
2022/07/22 02:26:33;;;;;;;28.38;16.95;;;;;;;;;;4974060;28;20190;-73
2022/07/22 02:29:00;;;;;;;29.17;17.35;;;;;;;;;;4975943;28;20075;-73
2022/07/22 02:31:28;;;;;;;30.27;17.30;;;;;;;;;;4958975;28;20058;-73
2022/07/22 02:33:55;;;;;;;31.98;18.05;;;;;;;;;;4948608;28;20050;-73
2022/07/22 02:36:24;;;;;;;33.33;18.05;;;;;;;;;;4951557;28;20198;-73
2022/07/22 02:38:51;;;;;;;31.83;18.13;;;;;;;;;;4953039;28;20059;-74
2022/07/22 02:41:19;;;;;;;34.30;17.60;;;;;;;;;;4964634;28;20067;-73
2022/07/22 02:43:46;;;;;;;34.55;17.58;;;;;;;;;;4951159;28;20133;-73
2022/07/22 02:46:14;;;;;;;27.48;17.38;;;;;;;;;;4967627;28;20193;-74
2022/07/22 02:48:41;;;;;;;29.95;18.60;;;;;;;;;;4952949;28;20047;-73
2022/07/22 02:51:09;;;;;;;30.60;17.63;;;;;;;;;;4967284;28;20047;-73
2022/07/22 02:53:36;;;;;;;28.40;16.75;;;;;;;;;;4954262;28;20137;-74
2022/07/22 02:56:05;;;;;;;34.13;18.00;;;;;;;;;;4968634;28;20055;-74
2022/07/22 02:58:32;;;;;;;34.20;19.65;;;;;;;;;;4966325;28;20504;-74
2022/07/22 03:01:00;;;;;;;33.25;18.17;;;;;;;;;;4967528;28;20133;-74
2022/07/22 03:03:27;;;;;;;37.00;19.63;;;;;;;;;;4967247;28;20810;-73
2022/07/22 03:05:54;;;;;;;35.15;19.27;;;;;;;;;;4971093;28;20057;-74
2022/07/22 03:08:22;;;;;;;30.88;18.92;;;;;;;;;;4956393;28;20519;-74
2022/07/22 03:10:49;;;;;;;30.73;17.55;;;;;;;;;;4970206;28;20072;-74
2022/07/22 03:13:16;;;;;;;35.30;17.98;;;;;;;;;;4970190;28;20475;-74
2022/07/22 03:15:44;;;;;;;32.83;18.88;;;;;;;;;;4954840;28;20055;-74
2022/07/22 03:18:11;;;;;;;31.40;18.55;;;;;;;;;;4955834;28;20736;-74
2022/07/22 03:20:39;;;;;;;35.08;18.70;;;;;;;;;;4955531;28;20645;-74
2022/07/22 03:23:06;;;;;;;29.10;19.23;;;;;;;;;;4955346;28;20113;-74
2022/07/22 03:25:34;;;;;;;29.20;18.15;;;;;;;;;;4954287;28;20058;-74
2022/07/22 03:28:01;;;;;;;32.35;18.55;;;;;;;;;;4971889;28;20165;-74
2022/07/22 03:30:28;;;;;;;32.33;18.67;;;;;;;;;;4958664;28;20055;-74
2022/07/22 03:32:56;;;;;;;34.60;19.98;;;;;;;;;;4974341;28;20181;-73
2022/07/22 03:35:23;;;;;;;31.55;19.23;;;;;;;;;;4974746;28;20051;-74
2022/07/22 03:37:50;;;;;;;32.30;18.77;;;;;;;;;;4973850;28;20091;-74
2022/07/22 03:40:18;;;;;;;32.83;19.77;;;;;;;;;;4975979;28;20740;-75
2022/07/22 03:42:45;;;;;;;38.45;21.60;;;;;;;;;;4973373;28;20419;-75
2022/07/22 03:45:13;;;;;;;38.13;21.13;;;;;;;;;;4958849;28;20062;-74
2022/07/22 03:47:41;;;;;;;38.70;21.67;;;;;;;;;;4958954;28;20141;-75
2022/07/22 03:50:09;;;;;;;42.38;22.55;;;;;;;;;;4960691;28;20076;-75
2022/07/22 03:52:36;;;;;;;40.95;22.70;;;;;;;;;;4973589;28;20056;-75
2022/07/22 03:55:04;;;;;;;44.92;24.17;;;;;;;;;;4971845;28;20141;-75
2022/07/22 03:57:31;;;;;;;44.22;22.77;;;;;;;;;;4959758;28;20050;-75
2022/07/22 03:59:58;;;;;;;42.15;22.95;;;;;;;;;;4958785;28;20271;-75
2022/07/22 04:02:26;;;;;;;44.97;23.67;;;;;;;;;;4949116;28;20082;-73
2022/07/22 04:04:53;;;;;;;41.75;23.23;;;;;;;;;;4953532;28;20075;-75
2022/07/22 04:07:20;;;;;;;44.92;23.05;;;;;;;;;;4957070;28;20257;-75
2022/07/22 04:09:48;;;;;;;46.13;24.27;;;;;;;;;;4971234;28;20133;-74
2022/07/22 04:12:15;;;;;;;41.47;22.75;;;;;;;;;;4961123;28;20137;-75
2022/07/22 04:14:42;;;;;;;47.65;25.23;;;;;;;;;;4961846;28;20058;-75
2022/07/22 04:17:10;;;;;;;53.97;25.42;;;;;;;;;;4961179;28;20258;-75
2022/07/22 04:19:42;;;;;;;48.58;24.98;;;;;;;;;;4961333;28;21311;-76
2022/07/22 04:22:09;;;;;;;42.45;24.95;;;;;;;;;;4980763;28;20134;-76
2022/07/22 04:24:36;;;;;;;46.03;23.77;;;;;;;;;;4967939;28;20146;-76
2022/07/22 04:27:04;;;;;;;46.90;26.00;;;;;;;;;;4966154;28;20133;-76
2022/07/22 04:29:31;;;;;;;45.22;24.58;;;;;;;;;;4986959;28;20051;-76
2022/07/22 04:31:58;;;;;;;42.38;24.25;;;;;;;;;;4972977;28;20078;-76
2022/07/22 04:34:29;;;;;;;48.83;25.08;;;;;;;;;;4967706;28;20526;-76
2022/07/22 04:36:56;;;;;;;50.60;26.13;;;;;;;;;;4984424;28;20078;-77
2022/07/22 04:39:23;;;;;;;45.88;25.73;;;;;;;;;;4965541;28;20051;-76
2022/07/22 04:41:51;;;;;;;54.22;26.45;;;;;;;;;;4966158;28;20078;-75
2022/07/22 04:44:18;;;;;;;52.95;28.17;;;;;;;;;;4964550;28;20165;-74
2022/07/22 04:46:45;;;;;;;47.22;25.17;;;;;;;;;;4962916;28;20493;-74
2022/07/22 04:49:13;;;;;;;47.10;24.27;;;;;;;;;;4979253;28;20157;-74
2022/07/22 04:51:40;;;;;;;44.15;25.52;;;;;;;;;;4974011;28;20054;-75
2022/07/22 04:54:08;;;;;;;49.50;24.83;;;;;;;;;;4949890;28;21993;-74
2022/07/22 04:56:35;;;;;;;47.78;24.95;;;;;;;;;;4953709;28;20061;-74
2022/07/22 04:59:03;;;;;;;46.72;24.63;;;;;;;;;;4943446;28;20050;-73
2022/07/22 05:01:31;;;;;;;48.25;25.15;;;;;;;;;;4945299;28;20102;-74
2022/07/22 05:03:58;;;;;;;53.35;26.45;;;;;;;;;;4957481;28;20058;-75
2022/07/22 05:06:25;;;;;;;48.22;25.88;;;;;;;;;;4969863;28;20127;-76
2022/07/22 05:08:53;;;;;;;45.47;23.80;;;;;;;;;;4967067;28;20051;-74
2022/07/22 05:11:21;;;;;;;52.83;25.85;;;;;;;;;;4953887;28;20130;-74
2022/07/22 05:13:48;;;;;;;52.33;24.02;;;;;;;;;;4965478;28;20047;-76
2022/07/22 05:16:15;;;;;;;49.08;25.80;;;;;;;;;;4966848;28;20571;-74
2022/07/22 05:18:43;;;;;;;49.35;26.42;;;;;;;;;;4951466;28;20074;-75
2022/07/22 05:21:10;;;;;;;55.97;28.88;;;;;;;;;;4951642;28;20047;-76
2022/07/22 05:23:38;;;;;;;51.70;26.40;;;;;;;;;;4949790;28;20047;-75
2022/07/22 05:26:05;;;;;;;31.30;13.63;;;;;;;;;;4949521;28;20523;-74
2022/07/22 05:28:33;;;;;;;19.23;9.07;;;;;;;;;;4963576;28;20153;-73
2022/07/22 05:31:00;;;;;;;11.13;4.78;;;;;;;;;;4943817;28;20057;-74
2022/07/22 05:33:27;;;;;;;3.30;2.40;;;;;;;;;;4945281;28;20050;-73
2022/07/22 05:35:55;;;;;;;4.50;1.83;;;;;;;;;;4952896;28;20074;-73
2022/07/22 05:38:22;;;;;;;4.85;1.50;;;;;;;;;;4952733;28;20074;-74
2022/07/22 05:40:49;;;;;;;3.20;1.27;;;;;;;;;;4953881;28;20691;-74
2022/07/22 05:43:17;;;;;;;3.55;1.40;;;;;;;;;;4979676;28;20055;-75
2022/07/22 05:45:44;;;;;;;3.35;1.73;;;;;;;;;;4983465;28;20050;-73
2022/07/22 05:48:11;;;;;;;4.28;1.70;;;;;;;;;;4984132;28;20105;-73
2022/07/22 05:50:38;;;;;;;5.55;1.60;;;;;;;;;;4970346;28;20133;-73
2022/07/22 05:53:15;;;;;;;4.13;1.70;;;;;;;;;;4984083;28;20081;-73
2022/07/22 05:55:43;;;;;;;6.60;2.03;;;;;;;;;;4969653;28;20510;-73
2022/07/22 05:58:10;;;;;;;6.43;1.92;;;;;;;;;;4973036;28;20145;-72
2022/07/22 06:00:39;;;;;;;3.55;2.17;;;;;;;;;;4960416;28;20146;-73
2022/07/22 06:03:06;;;;;;;5.38;2.83;;;;;;;;;;4972987;28;20864;-73
2022/07/22 06:05:35;;;;;;;3.20;2.00;;;;;;;;;;4959375;28;20133;-73
2022/07/22 06:08:04;;;;;;;5.97;2.80;;;;;;;;;;4982472;28;20047;-73
2022/07/22 06:10:32;;;;;;;3.05;2.17;;;;;;;;;;4969667;28;20230;-73
2022/07/22 06:12:59;;;;;;;4.30;2.95;;;;;;;;;;4969334;28;20078;-73
2022/07/22 06:15:26;;;;;;;5.20;2.40;;;;;;;;;;4961596;28;20078;-73
2022/07/22 06:17:54;;;;;;;7.97;2.83;;;;;;;;;;4983782;28;20065;-73
2022/07/22 06:20:21;;;;;;;4.93;2.92;;;;;;;;;;4967933;28;20063;-73
2022/07/22 06:22:48;;;;;;;6.47;3.05;;;;;;;;;;4960838;28;20536;-72
2022/07/22 06:25:16;;;;;;;9.88;3.10;;;;;;;;;;4985931;28;20583;-73
2022/07/22 06:28:03;;;;;;;9.07;3.42;;;;;;;;;;4972549;28;20053;-72
2022/07/22 06:30:30;;;;;;;4.80;3.42;;;;;;;;;;4969606;28;20782;-72
2022/07/22 06:32:58;;;;;;;5.93;3.40;;;;;;;;;;4970218;28;20046;-75
2022/07/22 06:35:25;;;;;;;8.27;3.80;;;;;;;;;;4962417;28;20705;-72
2022/07/22 06:37:52;;;;;;;5.80;3.47;;;;;;;;;;4960739;28;20133;-72
2022/07/22 06:40:31;;;;;;;9.88;4.40;;;;;;;;;;4962110;28;20058;-72
2022/07/22 06:42:59;;;;;;;6.80;3.75;;;;;;;;;;4962109;28;20063;-73
2022/07/22 06:45:26;;;;;;;11.82;4.28;;;;;;;;;;4968530;28;20061;-73
2022/07/22 06:47:54;;;;;;;14.25;4.15;;;;;;;;;;4968007;28;20154;-72
2022/07/22 06:50:22;;;;;;;8.15;3.75;;;;;;;;;;4967086;28;20053;-73
2022/07/22 06:52:51;;;;;;;13.15;3.83;;;;;;;;;;4967770;28;20103;-73
2022/07/22 06:55:18;;;;;;;12.70;3.90;;;;;;;;;;4983007;28;20050;-73
2022/07/22 06:57:45;;;;;;;10.18;4.40;;;;;;;;;;4982035;28;20046;-72
2022/07/22 07:00:13;;;;;;;11.32;4.18;;;;;;;;;;4982495;28;20086;-73
2022/07/22 07:02:40;;;;;;;12.90;4.63;;;;;;;;;;4982860;28;20137;-72
2022/07/22 07:05:08;;;;;;;16.77;5.05;;;;;;;;;;4967666;28;20144;-73
2022/07/22 07:07:46;;;;;;;15.93;4.47;;;;;;;;;;4968803;28;20050;-74
2022/07/22 07:10:15;;;;;;;11.85;4.07;;;;;;;;;;4968623;28;20078;-74
2022/07/22 07:12:43;;;;;;;18.92;5.10;;;;;;;;;;4968195;28;20074;-74
2022/07/22 07:15:11;;;;;;;15.88;4.15;;;;;;;;;;4966938;28;20055;-74
2022/07/22 07:17:52;;;;;;;16.33;4.55;;;;;;;;;;4961731;28;20488;-74
2022/07/22 07:20:20;;;;;;;14.50;5.00;;;;;;;;;;4968801;28;20496;-74
2022/07/22 07:22:47;;;;;;;16.98;5.05;;;;;;;;;;4981225;28;20134;-74
2022/07/22 07:25:14;;;;;;;17.38;4.47;;;;;;;;;;4977382;28;20140;-75
2022/07/22 07:27:50;;;;;;;16.60;4.68;;;;;;;;;;4964340;28;20050;-73
2022/07/22 07:30:20;;;;;;;11.60;4.55;;;;;;;;;;4965275;28;20129;-74
2022/07/22 07:32:48;;;;;;;14.43;4.38;;;;;;;;;;4976789;28;20078;-74
2022/07/22 07:35:15;;;;;;;13.18;4.57;;;;;;;;;;4967260;28;20117;-76
2022/07/22 07:37:42;;;;;;;15.80;4.85;;;;;;;;;;4982102;28;20086;-76
2022/07/22 07:40:10;;;;;;;15.52;4.47;;;;;;;;;;4967864;28;20083;-76
2022/07/22 07:42:38;;;;;;;17.52;6.85;;;;;;;;;;4980272;28;20754;-75
2022/07/22 07:45:13;;;;;;;10.40;4.07;;;;;;;;;;4981706;28;20050;-76
2022/07/22 07:47:41;;;;;;;13.75;5.32;;;;;;;;;;4969299;28;20078;-77
2022/07/22 07:50:08;;;;;;;17.60;5.28;;;;;;;;;;4968737;28;20125;-77
2022/07/22 07:52:42;;;;;;;14.25;4.72;;;;;;;;;;4984717;28;20465;-76
2022/07/22 07:55:18;;;;;;;13.20;4.95;;;;;;;;;;4970529;28;20126;-76
2022/07/22 07:57:48;;;;;;;13.95;4.65;;;;;;;;;;4969575;28;20083;-77
2022/07/22 08:00:18;;;;;;;15.35;4.55;;;;;;;;;;4982167;28;20088;-75
2022/07/22 08:02:46;;;;;;;13.38;5.07;;;;;;;;;;4982545;28;20503;-75
2022/07/22 08:05:14;;;;;;;18.77;5.43;;;;;;;;;;4962468;28;20054;-75
2022/07/22 08:07:42;;;;;;;16.48;5.85;;;;;;;;;;4963553;28;20051;-76
2022/07/22 08:10:11;;;;;;;14.65;4.97;;;;;;;;;;4979756;28;20050;-75
2022/07/22 08:12:59;;;;;;;16.85;5.47;;;;;;;;;;4978918;28;20055;-76
2022/07/22 08:15:29;;;;;;;15.73;4.93;;;;;;;;;;4976072;28;20083;-76
2022/07/22 08:17:57;;;;;;;13.40;5.20;;;;;;;;;;4962393;28;20141;-76
2022/07/22 08:20:26;;;;;;;25.10;5.45;;;;;;;;;;4962691;28;20932;-76
2022/07/22 08:22:53;;;;;;;11.77;4.90;;;;;;;;;;4978674;28;20167;-77
2022/07/22 08:25:21;;;;;;;15.70;4.82;;;;;;;;;;4976318;28;20058;-76
2022/07/22 08:27:48;;;;;;;14.88;5.13;;;;;;;;;;4961409;28;20055;-76
2022/07/22 08:30:16;;;;;;;15.65;5.05;;;;;;;;;;4959752;28;20070;-76
2022/07/22 08:32:43;;;;;;;26.45;5.80;;;;;;;;;;4960329;28;20051;-75
2022/07/22 08:35:11;;;;;;;17.50;5.10;;;;;;;;;;4975411;28;20111;-75
2022/07/22 08:37:38;;;;;;;9.43;4.43;;;;;;;;;;4961315;28;20595;-75
2022/07/22 08:40:07;;;;;;;22.42;5.80;;;;;;;;;;4960880;28;20153;-75
2022/07/22 08:42:38;;;;;;;11.75;4.55;;;;;;;;;;4968811;28;20061;-75
2022/07/22 08:45:06;;;;;;;19.58;5.10;;;;;;;;;;4961894;28;20130;-75
2022/07/22 08:47:45;;;;;;;20.50;4.57;;;;;;;;;;4968459;28;20054;-76
2022/07/22 08:50:12;;;;;;;16.60;5.00;;;;;;;;;;4966137;28;20059;-75
2022/07/22 08:52:40;;;;;;;22.15;5.20;;;;;;;;;;4981777;28;20073;-74
2022/07/22 08:55:09;;;;;;;19.17;4.68;;;;;;;;;;4974531;28;20047;-75
2022/07/22 08:57:39;;;;;;;23.55;4.93;;;;;;;;;;4966429;28;20113;-75
2022/07/22 09:00:11;;;;;;;17.88;5.22;;;;;;;;;;4972629;28;20162;-75
2022/07/22 09:02:40;;;;;;;16.25;4.60;;;;;;;;;;4983944;28;20137;-75
2022/07/22 09:05:08;;;;;;;15.85;4.82;;;;;;;;;;4965891;28;20063;-75
2022/07/22 09:07:58;;;;;;;18.50;4.38;;;;;;;;;;4967779;28;20530;-75
2022/07/22 09:10:31;;;;;;;18.33;4.25;;;;;;;;;;4980991;28;20105;-74
2022/07/22 09:12:59;;;;;;;17.65;4.20;;;;;;;;;;4957152;28;20750;-75
2022/07/22 09:15:30;;;;;;;12.65;4.30;;;;;;;;;;4965653;28;20153;-75
2022/07/22 09:17:58;;;;;;;17.08;4.38;;;;;;;;;;4983050;28;20078;-75
2022/07/22 09:20:31;;;;;;;11.57;4.15;;;;;;;;;;4983059;28;20057;-75
2022/07/22 09:22:58;;;;;;;16.75;4.85;;;;;;;;;;4970469;28;20055;-75
2022/07/22 09:25:33;;;;;;;21.80;5.15;;;;;;;;;;4972142;28;20074;-75
2022/07/22 09:28:06;;;;;;;15.75;4.50;;;;;;;;;;4956321;28;20148;-75
2022/07/22 09:30:45;;;;;;;15.15;4.68;;;;;;;;;;4982920;28;20043;-77
2022/07/22 09:33:14;;;;;;;14.63;5.18;;;;;;;;;;4972554;28;20051;-76
2022/07/22 09:35:41;;;;;;;17.20;4.60;;;;;;;;;;4972519;28;20672;-75
2022/07/22 09:38:17;;;;;;;23.65;5.22;;;;;;;;;;4985859;28;20483;-75
2022/07/22 09:40:45;;;;;;;20.13;4.30;;;;;;;;;;4971770;28;20100;-75
2022/07/22 09:43:15;;;;;;;11.90;4.65;;;;;;;;;;4981795;28;20058;-77
2022/07/22 09:45:47;;;;;;;12.60;4.35;;;;;;;;;;4989590;28;20051;-77
2022/07/22 09:48:17;;;;;;;19.75;4.97;;;;;;;;;;4986841;28;20062;-76
2022/07/22 09:50:45;;;;;;;22.75;5.60;;;;;;;;;;4984957;28;20519;-76
2022/07/22 09:53:12;;;;;;;18.27;5.28;;;;;;;;;;4986603;28;20121;-76
2022/07/22 09:55:40;;;;;;;15.15;5.00;;;;;;;;;;4986329;28;20074;-75
2022/07/22 09:58:07;;;;;;;17.17;5.30;;;;;;;;;;4986108;28;20565;-75
2022/07/22 10:00:36;;;;;;;16.92;5.22;;;;;;;;;;4992501;28;20078;-76
2022/07/22 10:03:05;;;;;;;14.00;4.60;;;;;;;;;;4967217;28;20067;-76
2022/07/22 10:05:34;;;;;;;18.20;5.13;;;;;;;;;;4970611;28;20439;-76
2022/07/22 10:08:02;;;;;;;22.05;4.75;;;;;;;;;;4973249;28;20135;-76
2022/07/22 10:10:30;;;;;;;18.73;4.53;;;;;;;;;;4973590;28;20403;-76
2022/07/22 10:12:59;;;;;;;17.65;4.20;;;;;;;;;;4988231;28;20047;-76
2022/07/22 10:15:27;;;;;;;18.88;4.47;;;;;;;;;;4969577;28;20042;-74
2022/07/22 10:18:06;;;;;;;19.60;4.30;;;;;;;;;;4983640;28;20065;-76
2022/07/22 10:20:34;;;;;;;18.85;4.80;;;;;;;;;;4958544;28;20051;-75
2022/07/22 10:23:03;;;;;;;15.73;4.57;;;;;;;;;;4965809;28;20055;-76
2022/07/22 10:25:56;;;;;;;15.73;4.63;;;;;;;;;;4983585;28;20142;-76
2022/07/22 10:28:34;;;;;;;20.98;5.00;;;;;;;;;;4986332;28;20140;-76
2022/07/22 10:31:18;;;;;;;15.80;5.07;;;;;;;;;;4969441;28;20054;-76
2022/07/22 10:33:49;;;;;;;12.20;4.55;;;;;;;;;;4967989;28;20408;-76
2022/07/22 10:36:30;;;;;;;16.27;4.35;;;;;;;;;;4971205;28;20117;-76
2022/07/22 10:39:03;;;;;;;20.38;5.07;;;;;;;;;;4982104;28;20104;-76
2022/07/22 10:41:34;;;;;;;22.50;4.82;;;;;;;;;;4999215;28;20476;-76
2022/07/22 10:44:01;;;;;;;17.77;5.63;;;;;;;;;;4971923;28;20090;-76
2022/07/22 10:46:47;;;;;;;14.68;4.30;;;;;;;;;;4971137;28;20082;-76
2022/07/22 10:49:15;;;;;;;24.10;4.47;;;;;;;;;;4968616;28;20050;-75
2022/07/22 10:52:01;;;;;;;13.35;4.63;;;;;;;;;;4965331;28;20126;-75
2022/07/22 10:54:29;;;;;;;19.08;4.80;;;;;;;;;;4984899;28;20055;-75
2022/07/22 10:57:05;;;;;;;12.95;4.85;;;;;;;;;;4970699;28;20078;-76
2022/07/22 10:59:32;;;;;;;26.27;5.80;;;;;;;;;;4983348;28;20059;-76
2022/07/22 11:01:59;;;;;;;19.25;5.22;;;;;;;;;;4970267;28;20079;-76
2022/07/22 11:04:27;;;;;;;15.77;5.88;;;;;;;;;;4985527;28;20782;-76
2022/07/22 11:06:55;;;;;;;14.75;5.15;;;;;;;;;;4971034;28;20134;-76
2022/07/22 11:09:24;;;;;;;21.95;5.80;;;;;;;;;;4970644;28;20142;-75
2022/07/22 11:11:55;;;;;;;18.20;5.13;;;;;;;;;;4969759;28;20702;-75
2022/07/22 11:14:30;;;;;;;18.08;4.82;;;;;;;;;;4976312;28;20089;-75
2022/07/22 11:16:57;;;;;;;22.65;5.00;;;;;;;;;;4982187;28;20046;-75
2022/07/22 11:19:26;;;;;;;14.93;4.70;;;;;;;;;;4973108;28;20054;-75
2022/07/22 11:21:55;;;;;;;20.15;4.95;;;;;;;;;;4991329;28;20132;-75
2022/07/22 11:24:23;;;;;;;14.55;4.75;;;;;;;;;;4968903;28;20125;-75
2022/07/22 11:26:54;;;;;;;13.88;4.65;;;;;;;;;;4978298;28;20073;-75
2022/07/22 11:29:33;;;;;;;12.90;4.75;;;;;;;;;;4983704;28;20051;-76
2022/07/22 11:32:01;;;;;;;19.73;5.45;;;;;;;;;;4983709;28;20043;-75
2022/07/22 11:34:28;;;;;;;21.65;5.45;;;;;;;;;;4978271;28;20089;-75
2022/07/22 11:36:57;;;;;;;12.13;5.38;;;;;;;;;;4969618;28;20153;-75
2022/07/22 11:39:25;;;;;;;14.93;5.05;;;;;;;;;;4986810;28;20077;-75
2022/07/22 11:41:53;;;;;;;17.27;5.60;;;;;;;;;;4984717;28;20090;-77
2022/07/22 11:44:21;;;;;;;12.52;4.35;;;;;;;;;;4986672;28;20085;-75
2022/07/22 11:46:50;;;;;;;22.27;5.90;;;;;;;;;;4968033;28;20059;-76
2022/07/22 11:49:18;;;;;;;17.48;5.20;;;;;;;;;;4984679;28;20059;-77
2022/07/22 11:51:48;;;;;;;14.98;4.30;;;;;;;;;;4967548;28;20146;-77
2022/07/22 11:54:15;;;;;;;17.60;4.28;;;;;;;;;;4981948;28;20138;-77
2022/07/22 11:56:43;;;;;;;19.15;4.05;;;;;;;;;;4970141;28;20078;-75
2022/07/22 11:59:13;;;;;;;12.15;3.53;;;;;;;;;;4965854;28;20058;-77
2022/07/22 12:01:40;;;;;;;15.32;3.85;;;;;;;;;;4976908;28;20757;-77
2022/07/22 12:04:15;;;;;;;18.63;4.15;;;;;;;;;;4979637;28;20085;-77
2022/07/22 12:06:43;;;;;;;10.38;3.80;;;;;;;;;;4965256;28;20499;-77
2022/07/22 12:09:15;;;;;;;11.88;4.18;;;;;;;;;;4972498;28;20085;-81
2022/07/22 12:11:44;;;;;;;19.58;4.25;;;;;;;;;;4967717;28;20150;-77
2022/07/22 12:14:15;;;;;;;11.68;3.03;;;;;;;;;;4968385;28;20089;-76
2022/07/22 12:16:44;;;;;;;15.20;3.75;;;;;;;;;;4973598;28;20174;-77
2022/07/22 12:19:12;;;;;;;18.80;4.22;;;;;;;;;;4964317;28;20065;-75
2022/07/22 12:21:54;;;;;;;16.23;3.30;;;;;;;;;;4963101;28;20365;-76
2022/07/22 12:24:34;;;;;;;10.77;4.10;;;;;;;;;;4980816;28;20389;-75
2022/07/22 12:27:03;;;;;;;14.23;3.55;;;;;;;;;;4977313;28;20722;-74
2022/07/22 12:29:42;;;;;;;16.85;3.88;;;;;;;;;;4978280;28;20050;-75
2022/07/22 12:32:24;;;;;;;6.88;2.60;;;;;;;;;;4968581;28;20051;-77
2022/07/22 12:34:57;;;;;;;10.18;3.53;;;;;;;;;;4978899;28;20133;-76
2022/07/22 12:37:26;;;;;;;11.10;3.50;;;;;;;;;;4981020;28;20515;-75
2022/07/22 12:39:54;;;;;;;11.68;3.85;;;;;;;;;;4981502;28;20109;-75
2022/07/22 12:42:21;;;;;;;11.07;3.97;;;;;;;;;;4969761;28;20206;-76
2022/07/22 12:45:00;;;;;;;8.70;3.65;;;;;;;;;;4958138;28;20133;-75
2022/07/22 12:47:45;;;;;;;9.98;3.55;;;;;;;;;;4967509;28;20109;-75
2022/07/22 12:50:13;;;;;;;;;;;;;;;;;;4982113;28;20078;-77
2022/07/22 12:52:40;;;;;;;12.07;3.50;;;;;;;;;;4968473;28;20362;-81
2022/07/22 12:55:27;;;;;;;14.38;3.75;;;;;;;;;;4969735;28;20090;-79
2022/07/22 12:57:55;;;;;;;20.52;4.22;;;;;;;;;;4973312;28;20058;-79
2022/07/22 13:00:24;;;;;;;17.30;4.50;;;;;;;;;;4983627;28;20086;-78
2022/07/22 13:02:51;;;;;;;60.65;7.25;;;;;;;;;;4987226;28;20113;-79
2022/07/22 13:05:19;;;;;;;41.60;7.20;;;;;;;;;;4974248;28;20486;-79
2022/07/22 13:07:46;;;;;;;11.13;3.33;;;;;;;;;;4975012;28;20074;-79
2022/07/22 13:10:14;;;;;;;37.05;6.50;;;;;;;;;;4974194;28;20086;-80
2022/07/22 13:12:42;;;;;;;38.03;5.68;;;;;;;;;;4959746;28;20090;-78
2022/07/22 13:15:10;;;;;;;18.90;3.63;;;;;;;;;;4970952;28;20058;-77
2022/07/22 13:17:39;;;;;;;12.82;3.15;;;;;;;;;;4971890;28;20074;-77
2022/07/22 13:20:07;;;;;;;16.88;3.15;;;;;;;;;;4993526;28;20112;-74
2022/07/22 13:22:35;;;;;;;9.63;2.78;;;;;;;;;;4999531;28;20161;-75
2022/07/22 13:25:02;;;;;;;14.43;3.83;;;;;;;;;;4973537;28;20085;-75
2022/07/22 13:27:30;;;;;;;10.18;2.80;;;;;;;;;;4962142;28;20089;-75
2022/07/22 13:29:57;;;;;;;13.73;3.05;;;;;;;;;;4970940;28;20110;-76
2022/07/22 13:32:25;;;;;;;15.73;2.72;;;;;;;;;;4982260;28;20057;-76
2022/07/22 13:35:11;;;;;;;14.10;3.08;;;;;;;;;;4966284;28;20603;-75
2022/07/22 13:37:38;;;;;;;10.45;2.67;;;;;;;;;;4986011;28;20157;-76
2022/07/22 13:40:06;;;;;;;11.27;2.80;;;;;;;;;;4970333;28;20134;-77
2022/07/22 13:42:34;;;;;;;14.02;3.13;;;;;;;;;;4971421;28;20102;-76
2022/07/22 13:45:01;;;;;;;14.02;2.83;;;;;;;;;;4966764;28;20112;-76
2022/07/22 13:47:29;;;;;;;9.85;2.88;;;;;;;;;;4966427;28;20125;-76
2022/07/22 13:49:56;;;;;;;15.27;2.70;;;;;;;;;;4966446;28;20145;-76
2022/07/22 13:52:24;;;;;;;10.02;2.63;;;;;;;;;;4966850;28;20834;-76
2022/07/22 13:54:51;;;;;;;10.07;2.50;;;;;;;;;;4973559;28;20143;-75
2022/07/22 13:57:19;;;;;;;10.88;2.45;;;;;;;;;;4963888;28;20131;-75
2022/07/22 13:59:46;;;;;;;7.32;2.05;;;;;;;;;;4948800;28;20138;-76
2022/07/22 14:02:13;;;;;;;15.50;2.75;;;;;;;;;;4973322;28;20079;-75
2022/07/22 14:04:43;;;;;;;7.78;2.33;;;;;;;;;;4967068;28;20710;-75
2022/07/22 14:07:10;;;;;;;12.20;2.33;;;;;;;;;;4966186;28;20137;-76
2022/07/22 14:09:39;;;;;;;11.27;2.75;;;;;;;;;;4982767;28;20110;-74
2022/07/22 14:12:06;;;;;;;10.77;3.00;;;;;;;;;;4983182;28;20567;-74
2022/07/22 14:14:34;;;;;;;13.88;2.80;;;;;;;;;;4962963;28;20123;-75
2022/07/22 14:17:01;;;;;;;8.45;2.17;;;;;;;;;;4967835;28;20082;-75
2022/07/22 14:19:29;;;;;;;11.73;2.33;;;;;;;;;;4975939;28;20054;-75
2022/07/22 14:21:56;;;;;;;8.65;1.90;;;;;;;;;;4967841;28;20161;-75
2022/07/22 14:24:25;;;;;;;8.10;2.08;;;;;;;;;;4967915;28;20070;-74
2022/07/22 14:26:52;;;;;;;9.07;2.20;;;;;;;;;;4984001;28;20443;-75
2022/07/22 14:29:21;;;;;;;10.77;2.63;;;;;;;;;;4968393;28;20154;-75
2022/07/22 14:31:49;;;;;;;7.07;2.13;;;;;;;;;;4969008;28;20129;-75
2022/07/22 14:34:16;;;;;;;13.05;2.17;;;;;;;;;;4969181;28;20388;-74
2022/07/22 14:36:46;;;;;;;10.32;1.95;;;;;;;;;;4969276;28;20150;-75